createdAt,value
2022-12-29T00:02:17.088Z,6.07
2022-12-29T00:04:43.976Z,3.77
2022-12-29T00:07:11.204Z,7.20
2022-12-29T00:09:37.889Z,3.70
2022-12-29T00:12:05.604Z,5.33
2022-12-29T00:14:50.648Z,4.57
2022-12-29T00:17:17.335Z,4.13
2022-12-29T00:20:03.235Z,8.43
2022-12-29T00:22:48.812Z,6.43
2022-12-29T00:25:34.548Z,5.63
2022-12-29T00:28:19.896Z,6.10
2022-12-29T00:31:05.265Z,4.77
2022-12-29T00:33:52.544Z,3.47
2022-12-29T00:36:20.891Z,4.23
2022-12-29T00:39:29.671Z,5.80
2022-12-29T00:42:25.627Z,5.97
2022-12-29T00:44:52.366Z,6.90
2022-12-29T00:47:19.043Z,4.87
2022-12-29T00:49:45.798Z,4.90
2022-12-29T00:52:13.841Z,4.30
2022-12-29T00:54:41.949Z,3.30
2022-12-29T00:57:10.499Z,4.33
2022-12-29T00:59:41.600Z,4.13
2022-12-29T01:02:09.443Z,3.93
2022-12-29T01:04:37.164Z,3.37
2022-12-29T01:07:04.567Z,2.90
2022-12-29T01:09:50.890Z,2.83
2022-12-29T01:12:38.159Z,4.07
2022-12-29T01:15:05.474Z,4.73
2022-12-29T01:17:32.219Z,4.80
2022-12-29T01:19:58.927Z,2.97
2022-12-29T01:22:25.600Z,5.23
2022-12-29T01:24:52.260Z,3.57
2022-12-29T01:27:18.965Z,4.00
2022-12-29T01:29:45.722Z,3.30
2022-12-29T01:32:12.373Z,3.37
2022-12-29T01:34:39.061Z,2.10
2022-12-29T01:37:05.821Z,3.50
2022-12-29T01:39:32.839Z,3.90
2022-12-29T01:41:59.537Z,3.83
2022-12-29T01:44:51.545Z,3.33
2022-12-29T01:47:30.286Z,4.47
2022-12-29T01:49:59.942Z,2.90
2022-12-29T01:52:31.239Z,3.20
2022-12-29T01:55:00.128Z,2.93
2022-12-29T01:57:32.469Z,4.33
2022-12-29T02:00:10.271Z,4.33
2022-12-29T02:02:41.692Z,4.53
2022-12-29T02:05:16.391Z,2.60
2022-12-29T02:07:46.015Z,3.57
2022-12-29T02:10:13.737Z,4.40
2022-12-29T02:12:41.706Z,3.37
2022-12-29T02:15:09.267Z,4.50
2022-12-29T02:17:59.229Z,4.57
2022-12-29T02:20:28.944Z,4.60
2022-12-29T02:23:17.417Z,3.40
2022-12-29T02:26:03.578Z,7.37
2022-12-29T02:28:45.617Z,4.53
2022-12-29T02:31:36.061Z,3.47
2022-12-29T02:34:36.387Z,2.80
2022-12-29T02:37:03.013Z,5.27
2022-12-29T02:39:46.800Z,4.73
2022-12-29T02:42:31.868Z,4.93
2022-12-29T02:45:03.635Z,3.70
2022-12-29T02:47:39.196Z,4.70
2022-12-29T02:50:23.720Z,5.10
2022-12-29T02:53:07.427Z,6.27
2022-12-29T02:55:34.829Z,3.30
2022-12-29T02:58:18.426Z,5.10
2022-12-29T03:01:26.882Z,4.87
2022-12-29T03:04:05.744Z,5.80
2022-12-29T03:07:00.508Z,5.20
2022-12-29T03:09:37.501Z,3.70
2022-12-29T03:12:59.926Z,6.10
2022-12-29T03:15:55.577Z,5.23
2022-12-29T03:18:45.171Z,5.10
2022-12-29T03:21:55.702Z,4.10
2022-12-29T03:24:32.147Z,3.27
2022-12-29T03:27:03.142Z,3.17
2022-12-29T03:29:40.008Z,3.63
2022-12-29T03:32:09.969Z,5.13
2022-12-29T03:34:39.295Z,5.33
2022-12-29T03:37:11.205Z,4.67
2022-12-29T03:39:38.617Z,3.97
2022-12-29T03:42:16.179Z,4.50
2022-12-29T03:44:45.208Z,4.27
2022-12-29T03:47:15.504Z,5.47
2022-12-29T03:49:44.386Z,4.30
2022-12-29T03:52:12.049Z,6.20
2022-12-29T03:54:43.067Z,4.77
2022-12-29T03:57:11.441Z,3.77
2022-12-29T04:00:06.617Z,4.27
2022-12-29T04:02:42.828Z,2.90
2022-12-29T04:05:14.417Z,4.13
2022-12-29T04:07:41.134Z,2.80
2022-12-29T04:10:08.542Z,2.97
2022-12-29T04:12:35.921Z,4.27
2022-12-29T04:15:02.877Z,2.47
2022-12-29T04:17:29.841Z,3.83
2022-12-29T04:20:16.517Z,3.90
2022-12-29T04:22:43.518Z,4.20
2022-12-29T04:25:10.240Z,3.37
2022-12-29T04:27:37.544Z,3.37
2022-12-29T04:30:27.127Z,4.17
2022-12-29T04:33:04.428Z,4.17
2022-12-29T04:35:31.187Z,5.43
2022-12-29T04:37:57.839Z,3.83
2022-12-29T04:40:24.796Z,3.97
2022-12-29T04:42:51.581Z,3.33
2022-12-29T04:45:20.050Z,4.87
2022-12-29T04:47:59.064Z,3.60
2022-12-29T04:50:58.200Z,2.97
2022-12-29T04:53:26.202Z,6.50
2022-12-29T04:55:54.394Z,4.90
2022-12-29T04:58:23.270Z,3.63
2022-12-29T05:00:52.297Z,4.97
2022-12-29T05:03:21.644Z,3.33
2022-12-29T05:05:49.141Z,4.80
2022-12-29T05:08:16.058Z,5.53
2022-12-29T05:10:46.498Z,3.67
2022-12-29T05:13:13.678Z,2.93
2022-12-29T05:15:48.670Z,3.10
2022-12-29T05:18:15.452Z,3.23
2022-12-29T05:20:42.718Z,4.40
2022-12-29T05:23:09.640Z,3.63
2022-12-29T05:25:36.419Z,4.30
2022-12-29T05:28:29.996Z,4.13
2022-12-29T05:31:05.938Z,3.27
2022-12-29T05:33:32.832Z,3.83
2022-12-29T05:36:08.193Z,5.97
2022-12-29T05:38:36.421Z,4.27
2022-12-29T05:41:03.212Z,3.57
2022-12-29T05:43:50.147Z,5.90
2022-12-29T05:46:28.941Z,4.93
2022-12-29T05:49:08.297Z,4.20
2022-12-29T05:51:53.397Z,4.20
2022-12-29T05:54:20.124Z,3.77
2022-12-29T05:56:46.980Z,4.03
2022-12-29T05:59:13.776Z,3.30
2022-12-29T06:01:40.858Z,7.00
2022-12-29T06:04:08.078Z,4.10
2022-12-29T06:06:35.329Z,4.00
2022-12-29T06:09:03.175Z,4.27
2022-12-29T06:11:29.904Z,4.17
2022-12-29T06:13:59.106Z,3.83
2022-12-29T06:16:25.854Z,4.37
2022-12-29T06:18:55.812Z,5.33
2022-12-29T06:21:22.636Z,6.13
2022-12-29T06:23:49.332Z,4.50
2022-12-29T06:26:17.205Z,4.53
2022-12-29T06:28:44.349Z,4.90
2022-12-29T06:31:12.072Z,5.93
2022-12-29T06:33:39.382Z,4.20
2022-12-29T06:36:06.608Z,4.13
2022-12-29T06:38:33.886Z,6.43
2022-12-29T06:41:00.652Z,5.53
2022-12-29T06:43:45.906Z,4.80
2022-12-29T06:46:29.526Z,6.43
2022-12-29T06:48:56.243Z,4.43
2022-12-29T06:51:22.871Z,4.90
2022-12-29T06:53:49.634Z,5.60
2022-12-29T06:56:16.400Z,6.57
2022-12-29T06:58:43.055Z,6.13
2022-12-29T07:01:09.767Z,6.40
2022-12-29T07:03:36.608Z,3.40
2022-12-29T07:06:04.143Z,6.13
2022-12-29T07:08:30.843Z,7.00
2022-12-29T07:10:57.455Z,7.63
2022-12-29T07:13:24.205Z,5.57
2022-12-29T07:15:50.928Z,5.47
2022-12-29T07:18:17.663Z,6.27
2022-12-29T07:20:44.419Z,5.80
2022-12-29T07:23:11.167Z,7.70
2022-12-29T07:25:37.887Z,6.70
2022-12-29T07:28:04.911Z,4.77
2022-12-29T07:30:31.606Z,8.40
2022-12-29T07:32:58.339Z,7.40
2022-12-29T07:35:25.067Z,6.83
2022-12-29T07:37:51.809Z,5.47
2022-12-29T07:40:18.491Z,5.17
2022-12-29T07:42:45.210Z,4.63
2022-12-29T07:45:13.080Z,6.47
2022-12-29T07:47:53.771Z,8.50
2022-12-29T07:50:20.459Z,5.07
2022-12-29T07:52:48.778Z,8.47
2022-12-29T07:55:16.974Z,6.87
2022-12-29T07:57:43.909Z,6.43
2022-12-29T08:00:11.319Z,4.20
2022-12-29T08:02:40.731Z,6.00
2022-12-29T08:05:07.757Z,5.60
2022-12-29T08:07:34.418Z,5.47
2022-12-29T08:10:02.374Z,4.97
2022-12-29T08:12:29.432Z,6.20
2022-12-29T08:14:56.194Z,6.10
2022-12-29T08:17:22.887Z,5.53
2022-12-29T08:19:49.803Z,3.70
2022-12-29T08:22:16.768Z,5.87
2022-12-29T08:24:43.542Z,5.77
2022-12-29T08:27:18.025Z,7.03
2022-12-29T08:29:46.958Z,4.87
2022-12-29T08:32:13.938Z,8.77
2022-12-29T08:34:40.851Z,5.57
2022-12-29T08:37:07.554Z,5.00
2022-12-29T08:39:34.796Z,9.20
2022-12-29T08:42:01.630Z,10.13
2022-12-29T08:44:28.338Z,8.07
2022-12-29T08:46:55.065Z,5.83
2022-12-29T08:49:22.026Z,5.43
2022-12-29T08:51:48.688Z,5.60
2022-12-29T08:54:15.288Z,4.47
2022-12-29T08:56:41.960Z,6.93
2022-12-29T08:59:09.005Z,3.20
2022-12-29T09:01:37.398Z,5.20
2022-12-29T09:04:14.821Z,4.57
2022-12-29T09:06:42.066Z,5.97
2022-12-29T09:09:08.762Z,5.80
2022-12-29T09:11:35.536Z,7.10
2022-12-29T09:14:02.191Z,4.47
2022-12-29T09:16:29.059Z,4.80
2022-12-29T09:18:55.807Z,3.90
2022-12-29T09:21:22.562Z,4.53
2022-12-29T09:23:49.403Z,4.83
2022-12-29T09:26:16.070Z,5.47
2022-12-29T09:28:43.183Z,3.80
2022-12-29T09:31:09.924Z,8.03
2022-12-29T09:33:36.940Z,6.03
2022-12-29T09:36:04.168Z,5.10
2022-12-29T09:38:31.615Z,4.43
2022-12-29T09:41:16.733Z,4.27
2022-12-29T09:44:07.995Z,3.83
2022-12-29T09:46:42.980Z,4.50
2022-12-29T09:49:42.069Z,5.70
2022-12-29T09:52:15.797Z,6.60
2022-12-29T09:55:02.842Z,3.97
2022-12-29T09:57:48.017Z,5.67
2022-12-29T10:00:18.274Z,5.10
2022-12-29T10:02:51.075Z,5.40
2022-12-29T10:05:42.015Z,5.17
2022-12-29T10:08:27.169Z,4.73
2022-12-29T10:11:26.152Z,5.57
2022-12-29T10:14:25.108Z,4.33
2022-12-29T10:17:13.576Z,5.13
2022-12-29T10:19:49.370Z,3.97
2022-12-29T10:22:19.034Z,3.70
2022-12-29T10:24:49.667Z,3.00
2022-12-29T10:27:17.821Z,3.33
2022-12-29T10:29:50.351Z,3.70
2022-12-29T10:32:24.066Z,2.47
2022-12-29T10:34:56.271Z,2.33
2022-12-29T10:37:39.829Z,2.70
2022-12-29T10:40:33.987Z,3.73
2022-12-29T10:43:01.893Z,5.57
2022-12-29T10:45:33.608Z,4.03
2022-12-29T10:48:10.269Z,4.10
2022-12-29T10:50:43.724Z,4.37
2022-12-29T10:53:22.838Z,4.93
2022-12-29T10:55:50.986Z,5.40
2022-12-29T10:58:18.493Z,3.53
2022-12-29T11:00:52.830Z,4.73
2022-12-29T11:03:25.427Z,3.53
2022-12-29T11:06:02.380Z,4.87
2022-12-29T11:08:36.356Z,3.13
2022-12-29T11:11:06.118Z,3.33
2022-12-29T11:13:39.212Z,3.83
2022-12-29T11:16:06.619Z,3.63
2022-12-29T11:18:40.789Z,4.20
2022-12-29T11:21:26.704Z,3.77
2022-12-29T11:24:05.348Z,3.77
2022-12-29T11:26:34.783Z,4.33
2022-12-29T11:29:17.104Z,4.03
2022-12-29T11:31:47.571Z,6.23
2022-12-29T11:34:34.096Z,4.63
2022-12-29T11:37:13.046Z,4.87
2022-12-29T11:39:51.924Z,2.63
2022-12-29T11:42:23.226Z,6.83
2022-12-29T11:44:52.250Z,4.33
2022-12-29T11:47:31.923Z,3.60
2022-12-29T11:50:02.772Z,3.20
2022-12-29T11:52:34.171Z,2.67
2022-12-29T11:55:03.171Z,5.40
2022-12-29T11:57:31.121Z,5.83
2022-12-29T12:00:00.834Z,3.17
2022-12-29T12:02:38.763Z,3.87
2022-12-29T12:05:29.138Z,3.63
2022-12-29T12:08:20.484Z,3.07
2022-12-29T12:10:57.539Z,3.37
2022-12-29T12:13:34.415Z,4.20
2022-12-29T12:16:14.157Z,3.57
2022-12-29T12:19:03.688Z,2.50
2022-12-29T12:21:44.849Z,2.87
2022-12-29T12:24:30.571Z,2.70
2022-12-29T12:27:16.240Z,2.77
2022-12-29T12:30:01.637Z,2.27
2022-12-29T12:32:44.241Z,3.07
2022-12-29T12:35:21.815Z,3.03
2022-12-29T12:38:04.676Z,2.97
2022-12-29T12:41:00.199Z,2.50
2022-12-29T12:43:42.375Z,2.47
2022-12-29T12:46:31.376Z,1.70
2022-12-29T12:49:35.824Z,4.60
2022-12-29T12:52:11.853Z,4.10
2022-12-29T12:54:53.695Z,4.07
2022-12-29T12:57:32.816Z,2.00
2022-12-29T13:00:09.904Z,2.37
2022-12-29T13:03:11.543Z,2.93
2022-12-29T13:05:58.993Z,2.53
2022-12-29T13:08:46.744Z,2.37
2022-12-29T13:11:44.224Z,2.67
2022-12-29T13:14:35.488Z,2.97
2022-12-29T13:17:12.693Z,2.70
2022-12-29T13:19:39.339Z,2.80
2022-12-29T13:22:14.695Z,3.67
2022-12-29T13:25:03.347Z,3.37
2022-12-29T13:28:21.876Z,3.67
2022-12-29T13:31:06.422Z,2.00
2022-12-29T13:33:56.856Z,3.80
2022-12-29T13:36:45.488Z,2.57
2022-12-29T13:39:21.523Z,3.87
2022-12-29T13:41:52.252Z,4.87
2022-12-29T13:44:26.393Z,3.40
2022-12-29T13:46:55.710Z,2.93
2022-12-29T13:49:25.443Z,2.63
2022-12-29T13:51:58.806Z,3.63
2022-12-29T13:54:57.417Z,3.83
2022-12-29T13:57:38.570Z,2.40
2022-12-29T14:00:19.000Z,3.30
2022-12-29T14:02:45.872Z,3.60
2022-12-29T14:05:18.762Z,3.37
2022-12-29T14:07:46.158Z,4.97
2022-12-29T14:10:37.084Z,2.83
2022-12-29T14:13:26.008Z,2.97
2022-12-29T14:15:55.758Z,5.40
2022-12-29T14:18:25.483Z,4.87
2022-12-29T14:21:10.177Z,6.77
2022-12-29T14:23:40.974Z,5.43
2022-12-29T14:26:07.610Z,6.07
2022-12-29T14:28:39.957Z,5.73
2022-12-29T14:31:15.954Z,8.63
2022-12-29T14:34:09.538Z,6.07
2022-12-29T14:36:37.553Z,5.37
2022-12-29T14:39:06.133Z,5.63
2022-12-29T14:41:40.108Z,6.03
2022-12-29T14:44:19.570Z,7.00
2022-12-29T14:46:55.336Z,6.07
2022-12-29T14:49:25.804Z,6.57
2022-12-29T14:51:55.888Z,3.97
2022-12-29T14:54:34.502Z,5.90
2022-12-29T14:57:04.714Z,5.87
2022-12-29T14:59:34.884Z,5.17
2022-12-29T15:02:05.833Z,6.37
2022-12-29T15:04:36.412Z,7.53
2022-12-29T15:07:08.148Z,4.77
2022-12-29T15:09:39.669Z,4.13
2022-12-29T15:12:43.094Z,7.27
2022-12-29T15:15:32.046Z,5.70
2022-12-29T15:18:14.356Z,4.03
2022-12-29T15:20:43.244Z,6.03
2022-12-29T15:23:15.879Z,6.90
2022-12-29T15:25:55.237Z,6.60
2022-12-29T15:28:23.153Z,8.13
2022-12-29T15:31:06.531Z,5.90
2022-12-29T15:33:44.023Z,6.67
2022-12-29T15:36:13.760Z,5.47
2022-12-29T15:38:40.990Z,6.00
2022-12-29T15:41:23.477Z,9.87
2022-12-29T15:44:01.435Z,5.67
2022-12-29T15:46:31.990Z,9.23
2022-12-29T15:48:59.187Z,6.93
2022-12-29T15:51:35.892Z,4.93
2022-12-29T15:54:03.372Z,6.40
2022-12-29T15:56:32.083Z,7.47
2022-12-29T15:59:00.169Z,7.23
2022-12-29T16:01:33.345Z,6.63
2022-12-29T16:04:03.740Z,10.23
2022-12-29T16:06:39.224Z,5.47
2022-12-29T16:09:36.175Z,7.37
2022-12-29T16:12:09.235Z,10.63
2022-12-29T16:14:45.408Z,6.73
2022-12-29T16:17:21.777Z,8.57
2022-12-29T16:19:53.720Z,10.50
2022-12-29T16:22:37.463Z,9.13
2022-12-29T16:25:26.169Z,6.73
2022-12-29T16:27:53.488Z,7.60
2022-12-29T16:30:32.830Z,7.33
2022-12-29T16:33:04.058Z,9.67
2022-12-29T16:35:45.777Z,9.33
2022-12-29T16:38:23.705Z,8.18
2022-12-29T16:41:03.216Z,8.53
2022-12-29T16:43:35.611Z,7.53
2022-12-29T16:46:02.282Z,7.87
2022-12-29T16:48:36.487Z,8.13
2022-12-29T16:51:07.074Z,8.70
2022-12-29T16:53:38.041Z,7.43
2022-12-29T16:56:17.392Z,8.90
2022-12-29T16:58:54.544Z,7.03
2022-12-29T17:01:21.607Z,7.37
2022-12-29T17:03:54.797Z,10.07
2022-12-29T17:06:23.363Z,8.27
2022-12-29T17:08:51.430Z,7.90
2022-12-29T17:11:49.242Z,8.23
2022-12-29T17:14:43.144Z,10.17
2022-12-29T17:17:19.724Z,10.80
2022-12-29T17:19:51.677Z,8.63
2022-12-29T17:22:26.046Z,9.73
2022-12-29T17:24:58.248Z,8.63
2022-12-29T17:27:34.312Z,5.53
2022-12-29T17:30:11.901Z,7.37
2022-12-29T17:32:40.357Z,7.60
2022-12-29T17:35:14.844Z,5.00
2022-12-29T17:37:43.828Z,9.20
2022-12-29T17:40:16.104Z,8.27
2022-12-29T17:42:46.086Z,5.33
2022-12-29T17:45:17.231Z,7.53
2022-12-29T17:47:44.494Z,12.70
2022-12-29T17:50:16.979Z,8.23
2022-12-29T17:53:00.699Z,8.60
2022-12-29T17:55:37.234Z,10.37
2022-12-29T17:58:19.991Z,11.63
2022-12-29T18:00:48.922Z,9.57
2022-12-29T18:03:17.890Z,8.47
2022-12-29T18:05:45.415Z,9.37
2022-12-29T18:08:12.527Z,10.00
2022-12-29T18:10:40.003Z,9.37
2022-12-29T18:13:07.421Z,6.53
2022-12-29T18:15:36.565Z,5.87
2022-12-29T18:18:13.194Z,8.33
2022-12-29T18:20:41.473Z,7.23
2022-12-29T18:23:27.491Z,7.10
2022-12-29T18:25:59.312Z,9.47
2022-12-29T18:28:26.984Z,8.17
2022-12-29T18:30:55.979Z,11.30
2022-12-29T18:33:26.225Z,7.17
2022-12-29T18:36:02.980Z,11.63
2022-12-29T18:38:30.347Z,8.70
2022-12-29T18:40:58.779Z,10.03
2022-12-29T18:43:26.146Z,5.73
2022-12-29T18:45:53.520Z,11.73
2022-12-29T18:48:21.040Z,8.00
2022-12-29T18:50:53.316Z,9.83
2022-12-29T18:53:23.312Z,10.43
2022-12-29T18:55:51.207Z,7.47
2022-12-29T18:58:18.255Z,10.10
2022-12-29T19:00:46.649Z,6.33
2022-12-29T19:03:15.717Z,8.73
2022-12-29T19:05:44.295Z,5.67
2022-12-29T19:08:12.755Z,7.10
2022-12-29T19:10:41.902Z,7.63
2022-12-29T19:13:17.450Z,9.47
2022-12-29T19:15:46.626Z,4.80
2022-12-29T19:21:08.216Z,5.83
2022-12-29T19:23:35.310Z,4.27
2022-12-29T19:26:02.465Z,7.90
2022-12-29T19:28:29.281Z,6.83
2022-12-29T19:31:00.008Z,7.97
2022-12-29T19:33:28.149Z,7.80
2022-12-29T19:36:00.020Z,6.00
2022-12-29T19:38:26.790Z,7.77
2022-12-29T19:40:53.595Z,6.87
2022-12-29T19:43:20.637Z,6.40
2022-12-29T19:45:47.386Z,6.87
2022-12-29T19:48:16.442Z,8.33
2022-12-29T19:50:44.073Z,10.13
2022-12-29T19:53:11.901Z,5.57
2022-12-29T19:55:43.247Z,8.80
2022-12-29T19:58:10.243Z,8.57
2022-12-29T20:00:39.981Z,9.47
2022-12-29T20:03:07.066Z,7.17
2022-12-29T20:05:33.952Z,5.33
2022-12-29T20:08:00.612Z,12.77
2022-12-29T20:10:27.680Z,7.17
2022-12-29T20:12:54.358Z,7.37
2022-12-29T20:15:21.132Z,5.77
2022-12-29T20:18:15.445Z,11.77
2022-12-29T20:20:34.710Z,8.87
2022-12-29T20:23:01.385Z,6.47
2022-12-29T20:25:46.612Z,6.23
2022-12-29T20:28:15.803Z,8.57
2022-12-29T20:30:43.038Z,8.23
2022-12-29T20:33:10.038Z,9.93
2022-12-29T20:35:37.303Z,7.13
2022-12-29T20:38:05.282Z,7.77
2022-12-29T20:40:32.100Z,7.07
2022-12-29T20:42:58.888Z,8.93
2022-12-29T20:45:25.778Z,6.63
2022-12-29T20:47:52.598Z,6.50
2022-12-29T20:50:19.278Z,7.33
2022-12-29T20:52:46.847Z,7.17
2022-12-29T20:55:14.431Z,6.80
2022-12-29T21:00:30.363Z,6.43
2022-12-29T21:03:01.091Z,6.60
2022-12-29T21:05:28.705Z,6.93
2022-12-29T21:07:56.068Z,7.93
2022-12-29T21:10:22.810Z,9.40
2022-12-29T21:12:49.826Z,7.43
2022-12-29T21:15:16.665Z,8.93
2022-12-29T21:17:44.270Z,7.40
2022-12-29T21:20:19.820Z,12.03
2022-12-29T21:22:47.837Z,7.63
2022-12-29T21:25:14.893Z,8.30
2022-12-29T21:27:44.654Z,6.47
2022-12-29T21:30:12.520Z,12.37
2022-12-29T21:32:40.462Z,7.83
2022-12-29T21:35:08.895Z,10.00
2022-12-29T21:37:36.102Z,8.63
2022-12-29T21:40:04.532Z,12.10
2022-12-29T21:42:31.563Z,6.57
2022-12-29T21:45:20.498Z,8.50
2022-12-29T21:48:07.095Z,9.07
2022-12-29T21:50:36.648Z,9.40
2022-12-29T21:53:03.299Z,10.13
2022-12-29T21:55:29.947Z,10.30
2022-12-29T21:58:14.921Z,7.60
2022-12-29T22:01:00.323Z,8.23
2022-12-29T22:03:45.559Z,9.57
2022-12-29T22:06:30.915Z,10.63
2022-12-29T22:09:16.159Z,9.07
2022-12-29T22:12:01.359Z,7.70
2022-12-29T22:14:28.183Z,7.57
2022-12-29T22:16:54.854Z,10.20
2022-12-29T22:19:21.583Z,11.83
2022-12-29T22:21:48.205Z,8.53
2022-12-29T22:24:14.917Z,9.17
2022-12-29T22:26:41.578Z,9.80
2022-12-29T22:29:08.254Z,11.17
2022-12-29T22:31:35.078Z,10.90
2022-12-29T22:34:04.039Z,8.40
2022-12-29T22:36:32.120Z,12.20
2022-12-29T22:38:58.919Z,8.83
2022-12-29T22:41:25.580Z,10.10
2022-12-29T22:43:52.412Z,16.33
2022-12-29T22:46:19.295Z,10.93
2022-12-29T22:48:46.291Z,11.47
2022-12-29T22:51:13.841Z,12.30
2022-12-29T22:53:41.220Z,9.83
2022-12-29T22:56:11.084Z,9.00
2022-12-29T22:58:42.464Z,11.63
2022-12-29T23:01:10.950Z,16.60
2022-12-29T23:03:38.337Z,10.70
2022-12-29T23:06:07.107Z,9.37
2022-12-29T23:08:36.450Z,10.20
2022-12-29T23:11:05.091Z,11.10
2022-12-29T23:13:32.266Z,9.30
2022-12-29T23:15:59.164Z,8.30
2022-12-29T23:18:26.779Z,10.83
2022-12-29T23:20:53.509Z,13.13
2022-12-29T23:23:46.405Z,11.70
2022-12-29T23:26:16.015Z,10.87
2022-12-29T23:28:42.792Z,10.60
2022-12-29T23:31:09.902Z,14.63
2022-12-29T23:33:36.885Z,12.33
2022-12-29T23:36:04.269Z,11.27
2022-12-29T23:38:31.073Z,11.83
2022-12-29T23:40:57.869Z,13.97
2022-12-29T23:43:24.647Z,11.20
2022-12-29T23:45:51.585Z,12.33
2022-12-29T23:48:19.042Z,12.27
2022-12-29T23:50:46.022Z,9.43
2022-12-29T23:53:12.751Z,10.60
2022-12-29T23:55:43.349Z,12.30
2022-12-29T23:58:10.749Z,10.50
